createdAt,value
2019-06-27T00:00:24.337Z,100.00
2019-06-27T00:01:24.419Z,100.00
2019-06-27T00:02:24.462Z,100.00
2019-06-27T00:04:24.556Z,100.00
2019-06-27T00:05:24.630Z,100.00
2019-06-27T00:06:24.690Z,100.00
2019-06-27T00:07:24.746Z,100.00
2019-06-27T00:08:24.854Z,100.00
2019-06-27T00:09:24.898Z,100.00
2019-06-27T00:10:24.940Z,100.00
2019-06-27T00:11:25.034Z,100.00
2019-06-27T00:12:25.069Z,100.00
2019-06-27T00:13:25.131Z,100.00
2019-06-27T00:14:25.184Z,100.00
2019-06-27T00:15:25.255Z,100.00
2019-06-27T00:16:25.366Z,100.00
2019-06-27T00:17:25.409Z,100.00
2019-06-27T00:18:25.456Z,100.00
2019-06-27T00:20:25.586Z,100.00
2019-06-27T00:21:25.647Z,100.00
2019-06-27T00:22:25.699Z,100.00
2019-06-27T00:23:25.861Z,100.00
2019-06-27T00:24:26.239Z,100.00
2019-06-27T00:25:26.619Z,100.00
2019-06-27T00:26:26.668Z,100.00
2019-06-27T00:27:26.768Z,100.00
2019-06-27T00:28:26.806Z,100.00
2019-06-27T00:29:26.904Z,100.00
2019-06-27T00:30:26.967Z,100.00
2019-06-27T00:31:27.015Z,100.00
2019-06-27T00:32:27.056Z,100.00
2019-06-27T00:33:27.176Z,100.00
2019-06-27T00:34:27.262Z,100.00
2019-06-27T00:35:27.487Z,100.00
2019-06-27T00:36:27.558Z,100.00
2019-06-27T00:37:27.668Z,100.00
2019-06-27T00:38:27.723Z,100.00
2019-06-27T00:39:27.788Z,100.00
2019-06-27T00:40:27.855Z,100.00
2019-06-27T00:41:27.894Z,100.00
2019-06-27T00:42:28.158Z,100.00
2019-06-27T00:43:28.231Z,100.00
2019-06-27T00:44:28.280Z,100.00
2019-06-27T00:45:28.399Z,100.00
2019-06-27T00:46:28.438Z,100.00
2019-06-27T00:47:28.511Z,100.00
2019-06-27T00:48:28.565Z,100.00
2019-06-27T00:49:28.610Z,100.00
2019-06-27T00:50:28.644Z,100.00
2019-06-27T00:51:28.702Z,100.00
2019-06-27T00:52:28.738Z,100.00
2019-06-27T00:53:28.823Z,100.00
2019-06-27T00:54:28.851Z,100.00
2019-06-27T00:55:28.895Z,100.00
2019-06-27T00:56:28.952Z,100.00
2019-06-27T00:57:29.006Z,100.00
2019-06-27T00:58:29.085Z,100.00
2019-06-27T00:59:29.200Z,100.00
2019-06-27T01:00:29.194Z,100.00
2019-06-27T01:01:29.278Z,100.00
2019-06-27T01:02:29.333Z,100.00
2019-06-27T01:03:29.331Z,100.00
2019-06-27T01:04:29.382Z,100.00
2019-06-27T01:05:29.418Z,100.00
2019-06-27T01:06:29.497Z,100.00
2019-06-27T01:07:29.545Z,100.00
2019-06-27T01:08:29.841Z,100.00
2019-06-27T01:09:29.877Z,100.00
2019-06-27T01:10:29.920Z,100.00
2019-06-27T01:11:29.966Z,100.00
2019-06-27T01:12:30.000Z,100.00
2019-06-27T01:13:30.038Z,100.00
2019-06-27T01:15:30.376Z,100.00
2019-06-27T01:16:30.501Z,100.00
2019-06-27T01:17:30.496Z,100.00
2019-06-27T01:18:30.519Z,100.00
2019-06-27T01:19:30.559Z,100.00
2019-06-27T01:20:30.611Z,100.00
2019-06-27T01:21:30.681Z,100.00
2019-06-27T01:22:30.732Z,100.00
2019-06-27T01:23:30.776Z,100.00
2019-06-27T01:24:30.806Z,100.00
2019-06-27T01:25:30.879Z,100.00
2019-06-27T01:26:31.012Z,100.00
2019-06-27T01:27:31.068Z,100.00
2019-06-27T01:28:34.468Z,100.00
2019-06-27T01:29:31.201Z,100.00
2019-06-27T01:30:31.285Z,100.00
2019-06-27T01:31:31.355Z,100.00
2019-06-27T01:32:31.415Z,100.00
2019-06-27T01:33:31.590Z,100.00
2019-06-27T01:34:31.831Z,100.00
2019-06-27T01:35:31.862Z,100.00
2019-06-27T01:36:31.945Z,100.00
2019-06-27T01:37:31.998Z,100.00
2019-06-27T01:38:32.130Z,100.00
2019-06-27T01:39:32.255Z,100.00
2019-06-27T01:40:32.451Z,100.00
2019-06-27T01:41:32.498Z,100.00
2019-06-27T01:42:32.545Z,100.00
2019-06-27T01:43:32.627Z,100.00
2019-06-27T01:44:32.695Z,100.00
2019-06-27T01:45:32.752Z,100.00
2019-06-27T01:46:32.808Z,100.00
2019-06-27T01:47:32.871Z,100.00
2019-06-27T01:48:32.913Z,100.00
2019-06-27T01:49:32.952Z,100.00
2019-06-27T01:50:33.012Z,100.00
2019-06-27T01:52:33.140Z,100.00
2019-06-27T01:53:33.151Z,100.00
2019-06-27T01:54:33.225Z,100.00
2019-06-27T01:55:33.267Z,100.00
2019-06-27T01:56:33.359Z,100.00
2019-06-27T01:57:45.983Z,100.00
2019-06-27T01:58:33.545Z,100.00
2019-06-27T01:59:33.639Z,100.00
2019-06-27T02:00:33.684Z,100.00
2019-06-27T02:01:33.772Z,100.00
2019-06-27T02:02:33.852Z,100.00
2019-06-27T02:03:33.910Z,100.00
2019-06-27T02:04:33.965Z,100.00
2019-06-27T02:05:34.026Z,100.00
2019-06-27T02:06:34.103Z,100.00
2019-06-27T02:07:34.161Z,100.00
2019-06-27T02:08:34.231Z,100.00
2019-06-27T02:09:34.294Z,100.00
2019-06-27T02:10:34.359Z,100.00
2019-06-27T02:11:34.450Z,100.00
2019-06-27T02:12:34.505Z,100.00
2019-06-27T02:13:34.575Z,100.00
2019-06-27T02:14:34.681Z,100.00
2019-06-27T02:15:34.738Z,100.00
2019-06-27T02:16:34.809Z,100.00
2019-06-27T02:17:34.867Z,100.00
2019-06-27T02:18:34.913Z,100.00
2019-06-27T02:19:35.000Z,100.00
2019-06-27T02:20:35.046Z,100.00
2019-06-27T02:21:35.090Z,100.00
2019-06-27T02:22:35.129Z,100.00
2019-06-27T02:23:35.181Z,100.00
2019-06-27T02:24:35.300Z,100.00
2019-06-27T02:25:35.370Z,100.00
2019-06-27T02:26:35.438Z,100.00
2019-06-27T02:27:35.499Z,100.00
2019-06-27T02:28:35.548Z,100.00
2019-06-27T02:29:35.597Z,100.00
2019-06-27T02:30:35.671Z,100.00
2019-06-27T02:31:36.057Z,100.00
2019-06-27T02:32:36.127Z,100.00
2019-06-27T02:33:36.187Z,100.00
2019-06-27T02:34:36.240Z,100.00
2019-06-27T02:35:36.295Z,100.00
2019-06-27T02:37:36.415Z,100.00
2019-06-27T02:38:36.687Z,100.00
2019-06-27T02:39:36.742Z,100.00
2019-06-27T02:40:36.799Z,100.00
2019-06-27T02:41:36.842Z,100.00
2019-06-27T02:42:37.017Z,100.00
2019-06-27T02:43:37.086Z,100.00
2019-06-27T02:44:37.132Z,100.00
2019-06-27T02:45:37.175Z,100.00
2019-06-27T02:46:37.235Z,100.00
2019-06-27T02:47:37.264Z,100.00
2019-06-27T02:48:37.309Z,100.00
2019-06-27T02:49:37.356Z,100.00
2019-06-27T02:50:37.401Z,100.00
2019-06-27T02:51:37.498Z,100.00
2019-06-27T02:52:37.532Z,100.00
2019-06-27T02:53:37.603Z,100.00
2019-06-27T02:55:37.698Z,100.00
2019-06-27T02:56:37.726Z,100.00
2019-06-27T02:57:37.782Z,100.00
2019-06-27T02:58:37.870Z,100.00
2019-06-27T02:59:37.933Z,100.00
2019-06-27T03:00:38.008Z,100.00
2019-06-27T03:01:38.076Z,100.00
2019-06-27T03:02:38.128Z,100.00
2019-06-27T03:03:38.204Z,100.00
2019-06-27T03:05:38.298Z,100.00
2019-06-27T03:06:38.356Z,100.00
2019-06-27T03:07:38.445Z,100.00
2019-06-27T03:08:38.476Z,100.00
2019-06-27T03:09:38.540Z,100.00
2019-06-27T03:10:38.651Z,100.00
2019-06-27T03:11:38.720Z,100.00
2019-06-27T03:12:38.774Z,100.00
2019-06-27T03:13:38.861Z,100.00
2019-06-27T03:14:38.925Z,100.00
2019-06-27T03:15:39.011Z,100.00
2019-06-27T03:16:39.073Z,100.00
2019-06-27T03:17:39.155Z,100.00
2019-06-27T03:18:39.264Z,100.00
2019-06-27T03:19:39.312Z,100.00
2019-06-27T03:20:39.367Z,100.00
2019-06-27T03:21:39.486Z,100.00
2019-06-27T03:23:39.603Z,100.00
2019-06-27T03:24:39.662Z,100.00
2019-06-27T03:25:39.735Z,100.00
2019-06-27T03:26:39.766Z,100.00
2019-06-27T03:27:39.827Z,100.00
2019-06-27T03:28:51.981Z,100.00
2019-06-27T03:29:39.966Z,100.00
2019-06-27T03:30:40.060Z,100.00
2019-06-27T03:31:40.107Z,100.00
2019-06-27T03:32:40.191Z,100.00
2019-06-27T03:33:40.308Z,100.00
2019-06-27T03:34:40.320Z,100.00
2019-06-27T03:35:40.377Z,100.00
2019-06-27T03:36:40.444Z,100.00
2019-06-27T03:37:40.528Z,100.00
2019-06-27T03:38:40.639Z,100.00
2019-06-27T03:39:40.687Z,100.00
2019-06-27T03:45:41.682Z,100.00
2019-06-27T03:46:41.755Z,100.00
2019-06-27T03:50:42.954Z,100.00
2019-06-27T03:51:43.030Z,100.00
2019-06-27T03:52:43.141Z,100.00
2019-06-27T03:53:43.222Z,100.00
2019-06-27T03:54:43.267Z,100.00
2019-06-27T03:55:43.451Z,100.00
2019-06-27T03:56:43.461Z,100.00
2019-06-27T03:57:45.317Z,100.00
2019-06-27T03:58:43.569Z,100.00
2019-06-27T03:59:43.642Z,100.00
2019-06-27T04:00:43.694Z,100.00
2019-06-27T04:01:43.748Z,100.00
2019-06-27T04:02:43.804Z,100.00
2019-06-27T04:03:43.873Z,100.00
2019-06-27T04:04:43.926Z,100.00
2019-06-27T04:05:43.979Z,100.00
2019-06-27T04:06:44.045Z,100.00
2019-06-27T04:07:44.136Z,100.00
2019-06-27T04:08:44.198Z,100.00
2019-06-27T04:09:44.252Z,100.00
2019-06-27T04:10:44.482Z,100.00
2019-06-27T04:11:44.507Z,100.00
2019-06-27T04:12:44.568Z,100.00
2019-06-27T04:13:44.637Z,100.00
2019-06-27T04:14:44.714Z,100.00
2019-06-27T04:15:44.750Z,100.00
2019-06-27T04:16:48.968Z,100.00
2019-06-27T04:17:44.867Z,100.00
2019-06-27T04:18:44.924Z,100.00
2019-06-27T04:19:45.013Z,100.00
2019-06-27T04:20:45.147Z,100.00
2019-06-27T04:21:45.232Z,100.00
2019-06-27T04:22:45.293Z,100.00
2019-06-27T04:23:45.346Z,100.00
2019-06-27T04:24:45.435Z,100.00
2019-06-27T04:25:45.487Z,100.00
2019-06-27T04:26:45.557Z,100.00
2019-06-27T04:27:45.622Z,100.00
2019-06-27T04:28:45.700Z,100.00
2019-06-27T04:29:45.777Z,100.00
2019-06-27T04:30:45.872Z,100.00
2019-06-27T04:31:45.949Z,100.00
2019-06-27T04:32:46.049Z,100.00
2019-06-27T04:33:46.133Z,100.00
2019-06-27T04:34:46.160Z,100.00
2019-06-27T04:35:46.216Z,100.00
2019-06-27T04:36:46.299Z,100.00
2019-06-27T04:37:46.363Z,100.00
2019-06-27T04:38:46.419Z,100.00
2019-06-27T04:39:46.478Z,100.00
2019-06-27T04:40:46.531Z,100.00
2019-06-27T04:41:46.592Z,100.00
2019-06-27T04:42:46.683Z,100.00
2019-06-27T04:43:46.730Z,100.00
2019-06-27T04:44:46.825Z,100.00
2019-06-27T04:45:46.920Z,100.00
2019-06-27T04:46:46.994Z,100.00
2019-06-27T04:47:47.061Z,100.00
2019-06-27T04:48:47.225Z,100.00
2019-06-27T04:49:47.146Z,100.00
2019-06-27T04:50:47.278Z,100.00
2019-06-27T04:51:47.374Z,100.00
2019-06-27T04:52:47.439Z,100.00
2019-06-27T04:53:47.493Z,100.00
2019-06-27T04:54:47.529Z,100.00
2019-06-27T04:55:47.636Z,100.00
2019-06-27T04:56:47.799Z,100.00
2019-06-27T04:57:47.799Z,100.00
2019-06-27T04:58:47.864Z,100.00
2019-06-27T04:59:54.063Z,100.00
2019-06-27T05:00:48.034Z,100.00
2019-06-27T05:01:48.092Z,100.00
2019-06-27T05:02:48.154Z,100.00
2019-06-27T05:03:48.213Z,100.00
2019-06-27T05:04:48.284Z,100.00
2019-06-27T05:05:48.382Z,100.00
2019-06-27T05:06:48.470Z,100.00
2019-06-27T05:07:48.543Z,100.00
2019-06-27T05:08:48.616Z,100.00
2019-06-27T05:09:48.683Z,100.00
2019-06-27T05:10:48.756Z,100.00
2019-06-27T05:11:48.812Z,100.00
2019-06-27T05:12:48.850Z,100.00
2019-06-27T05:13:48.915Z,100.00
2019-06-27T05:14:48.971Z,100.00
2019-06-27T05:15:49.055Z,100.00
2019-06-27T05:16:49.134Z,100.00
2019-06-27T05:17:49.202Z,100.00
2019-06-27T05:18:49.258Z,100.00
2019-06-27T05:19:49.321Z,100.00
2019-06-27T05:20:49.396Z,100.00
2019-06-27T05:21:49.438Z,100.00
2019-06-27T05:22:49.544Z,100.00
2019-06-27T05:23:49.606Z,100.00
2019-06-27T05:24:49.684Z,100.00
2019-06-27T05:25:49.772Z,100.00
2019-06-27T05:26:49.808Z,100.00
2019-06-27T05:27:49.857Z,99.73
2019-06-27T05:28:50.305Z,98.83
2019-06-27T05:29:50.351Z,97.23
2019-06-27T05:30:51.739Z,97.06
2019-06-27T05:31:50.530Z,96.50
2019-06-27T05:32:50.591Z,96.33
2019-06-27T05:33:50.720Z,95.39
2019-06-27T05:34:50.777Z,95.03
2019-06-27T05:35:50.858Z,94.16
2019-06-27T05:36:50.911Z,93.44
2019-06-27T05:37:51.000Z,92.95
2019-06-27T05:38:51.072Z,92.60
2019-06-27T05:39:51.211Z,92.06
2019-06-27T05:40:51.274Z,92.04
2019-06-27T05:41:51.327Z,92.21
2019-06-27T05:42:51.420Z,92.17
2019-06-27T05:43:51.570Z,91.37
2019-06-27T05:44:54.406Z,91.60
2019-06-27T05:45:52.007Z,91.35
2019-06-27T05:46:52.112Z,91.74
2019-06-27T05:47:52.169Z,91.52
2019-06-27T05:48:52.233Z,91.66
2019-06-27T05:49:52.320Z,91.96
2019-06-27T05:51:52.418Z,91.88
2019-06-27T05:52:52.461Z,91.32
2019-06-27T05:53:52.521Z,90.56
2019-06-27T05:54:52.600Z,90.73
2019-06-27T05:55:52.673Z,89.69
2019-06-27T05:56:52.744Z,89.90
2019-06-27T05:57:52.806Z,89.91
2019-06-27T05:58:52.853Z,89.94
2019-06-27T05:59:52.932Z,90.01
2019-06-27T06:00:52.994Z,89.86
2019-06-27T06:01:53.099Z,89.93
2019-06-27T06:02:53.187Z,90.00
2019-06-27T06:03:53.354Z,89.93
2019-06-27T06:04:53.422Z,89.52
2019-06-27T06:05:53.487Z,90.13
2019-06-27T06:06:53.548Z,89.42
2019-06-27T06:07:53.626Z,88.40
2019-06-27T06:08:53.703Z,88.43
2019-06-27T06:09:53.786Z,88.11
2019-06-27T06:10:53.845Z,88.00
2019-06-27T06:11:53.909Z,88.08
2019-06-27T06:12:54.031Z,89.56
2019-06-27T06:13:54.119Z,88.71
2019-06-27T06:14:54.184Z,88.58
2019-06-27T06:15:54.240Z,88.20
2019-06-27T06:16:54.303Z,87.57
2019-06-27T06:17:54.357Z,87.95
2019-06-27T06:18:54.505Z,87.62
2019-06-27T06:19:54.571Z,87.22
2019-06-27T06:20:54.633Z,86.57
2019-06-27T06:21:55.019Z,86.72
2019-06-27T06:22:54.790Z,85.89
2019-06-27T06:23:54.846Z,85.51
2019-06-27T06:24:58.062Z,84.91
2019-06-27T06:25:54.995Z,84.21
2019-06-27T06:26:55.070Z,83.47
2019-06-27T06:27:55.138Z,82.94
2019-06-27T06:28:55.277Z,83.35
2019-06-27T06:29:55.374Z,83.02
2019-06-27T06:30:55.432Z,82.82
2019-06-27T06:31:55.607Z,82.36
2019-06-27T06:32:55.643Z,81.54
2019-06-27T06:33:55.771Z,80.96
2019-06-27T06:34:55.824Z,80.80
2019-06-27T06:35:55.910Z,80.29
2019-06-27T06:36:55.987Z,80.24
2019-06-27T06:37:56.038Z,79.45
2019-06-27T06:38:56.109Z,80.02
2019-06-27T06:39:56.180Z,79.62
2019-06-27T06:40:56.256Z,79.25
2019-06-27T06:41:56.307Z,78.66
2019-06-27T06:43:00.287Z,78.22
2019-06-27T06:43:56.631Z,78.01
2019-06-27T06:44:56.719Z,77.72
2019-06-27T06:45:56.855Z,77.38
2019-06-27T06:46:56.948Z,77.84
2019-06-27T06:47:56.998Z,77.38
2019-06-27T06:48:57.035Z,77.53
2019-06-27T06:49:57.164Z,77.62
2019-06-27T06:50:57.231Z,78.26
2019-06-27T06:51:57.510Z,77.95
2019-06-27T06:52:57.599Z,77.73
2019-06-27T06:53:57.596Z,78.01
2019-06-27T06:54:57.646Z,78.44
2019-06-27T06:55:57.698Z,78.15
2019-06-27T06:56:57.772Z,79.12
2019-06-27T06:57:57.821Z,78.38
2019-06-27T06:58:57.880Z,79.43
2019-06-27T06:59:57.937Z,79.50
2019-06-27T07:01:02.030Z,79.90
2019-06-27T07:01:58.157Z,79.89
2019-06-27T07:02:58.153Z,79.48
2019-06-27T07:03:58.229Z,80.06
2019-06-27T07:04:58.277Z,80.49
2019-06-27T07:05:58.347Z,80.38
2019-06-27T07:06:58.506Z,80.10
2019-06-27T07:07:58.506Z,79.96
2019-06-27T07:08:58.551Z,79.41
2019-06-27T07:09:58.633Z,79.19
2019-06-27T07:10:58.670Z,79.17
2019-06-27T07:11:58.713Z,78.42
2019-06-27T07:12:58.763Z,77.73
2019-06-27T07:13:58.813Z,77.59
2019-06-27T07:14:58.849Z,77.65
2019-06-27T07:16:58.975Z,77.24
2019-06-27T07:17:59.026Z,77.28
2019-06-27T07:18:59.094Z,76.90
2019-06-27T07:19:59.160Z,77.20
2019-06-27T07:20:59.200Z,77.44
2019-06-27T07:21:59.287Z,77.01
2019-06-27T07:22:59.350Z,77.07
2019-06-27T07:23:59.399Z,76.21
2019-06-27T07:24:59.457Z,75.85
2019-06-27T07:25:59.528Z,75.79
2019-06-27T07:26:59.577Z,75.22
2019-06-27T07:27:59.659Z,74.71
2019-06-27T07:28:59.714Z,74.37
2019-06-27T07:29:59.867Z,74.00
2019-06-27T07:30:59.966Z,73.91
2019-06-27T07:32:00.062Z,72.71
2019-06-27T07:33:00.129Z,71.99
2019-06-27T07:34:00.176Z,71.23
2019-06-27T07:35:00.243Z,70.78
2019-06-27T07:36:00.399Z,70.13
2019-06-27T07:37:00.379Z,69.73
2019-06-27T07:38:00.444Z,69.25
2019-06-27T07:39:00.505Z,69.18
2019-06-27T07:40:00.563Z,69.26
2019-06-27T07:41:00.674Z,69.19
2019-06-27T07:42:00.705Z,68.97
2019-06-27T07:44:00.794Z,68.88
2019-06-27T07:45:00.837Z,68.41
2019-06-27T07:46:01.210Z,68.40
2019-06-27T07:47:01.274Z,68.76
2019-06-27T07:48:01.335Z,68.15
2019-06-27T07:49:01.394Z,68.59
2019-06-27T07:50:01.522Z,68.22
2019-06-27T07:51:01.910Z,67.74
2019-06-27T07:52:02.038Z,67.77
2019-06-27T07:53:02.105Z,67.46
2019-06-27T07:54:02.164Z,67.29
2019-06-27T07:55:02.214Z,66.58
2019-06-27T07:56:02.303Z,66.21
2019-06-27T07:57:02.342Z,65.53
2019-06-27T07:58:02.548Z,64.80
2019-06-27T07:59:02.453Z,64.60
2019-06-27T08:00:02.478Z,64.36
2019-06-27T08:01:02.657Z,63.95
2019-06-27T08:02:02.699Z,63.61
2019-06-27T08:03:02.750Z,63.31
2019-06-27T08:04:02.831Z,63.27
2019-06-27T08:05:02.867Z,62.75
2019-06-27T08:06:02.966Z,62.16
2019-06-27T08:07:02.996Z,61.27
2019-06-27T08:08:03.066Z,60.63
2019-06-27T08:09:03.121Z,59.62
2019-06-27T08:10:03.317Z,59.30
2019-06-27T08:11:03.405Z,59.32
2019-06-27T08:12:03.493Z,58.37
2019-06-27T08:13:03.555Z,58.23
2019-06-27T08:14:03.610Z,57.35
2019-06-27T08:15:03.668Z,57.47
2019-06-27T08:16:03.744Z,56.93
2019-06-27T08:17:03.815Z,57.57
2019-06-27T08:18:03.881Z,57.21
2019-06-27T08:19:03.942Z,56.95
2019-06-27T08:20:03.990Z,56.73
2019-06-27T08:21:04.059Z,56.34
2019-06-27T08:24:04.461Z,55.99
2019-06-27T08:25:04.513Z,54.72
2019-06-27T08:26:04.571Z,54.67
2019-06-27T08:27:04.660Z,54.57
2019-06-27T08:28:04.720Z,54.53
2019-06-27T08:29:04.827Z,54.45
2019-06-27T08:30:08.239Z,54.42
2019-06-27T08:31:04.993Z,55.41
2019-06-27T08:32:05.044Z,55.32
2019-06-27T08:33:05.086Z,53.90
2019-06-27T08:34:05.183Z,53.03
2019-06-27T08:35:05.234Z,53.33
2019-06-27T08:36:05.292Z,52.80
2019-06-27T08:37:05.355Z,52.66
2019-06-27T08:38:05.403Z,52.96
2019-06-27T08:39:05.478Z,53.03
2019-06-27T08:40:05.565Z,52.57
2019-06-27T08:41:05.623Z,52.51
2019-06-27T08:42:05.690Z,51.66
2019-06-27T08:43:05.721Z,51.42
2019-06-27T08:44:05.821Z,51.92
2019-06-27T08:45:05.882Z,51.10
2019-06-27T08:46:05.958Z,50.88
2019-06-27T08:47:06.022Z,50.67
2019-06-27T08:48:06.086Z,50.15
2019-06-27T08:49:06.127Z,48.93
2019-06-27T08:50:06.181Z,49.45
2019-06-27T08:51:06.242Z,50.23
2019-06-27T08:52:06.297Z,50.21
2019-06-27T08:53:06.461Z,50.36
2019-06-27T08:54:06.410Z,49.76
2019-06-27T08:55:06.464Z,49.66
2019-06-27T08:56:06.514Z,49.68
2019-06-27T08:57:06.600Z,49.20
2019-06-27T08:59:06.662Z,49.26
2019-06-27T09:01:06.750Z,49.04
2019-06-27T09:02:09.248Z,49.14
2019-06-27T09:03:07.031Z,48.89
2019-06-27T09:04:06.986Z,48.49
2019-06-27T09:05:07.033Z,48.46
2019-06-27T09:06:07.102Z,48.05
2019-06-27T09:07:07.153Z,47.97
2019-06-27T09:08:07.207Z,49.47
2019-06-27T09:09:07.261Z,49.31
2019-06-27T09:10:07.322Z,49.04
2019-06-27T09:11:07.379Z,48.58
2019-06-27T09:12:07.418Z,48.58
2019-06-27T09:13:07.518Z,47.39
2019-06-27T09:14:07.596Z,46.72
2019-06-27T09:15:07.661Z,47.02
2019-06-27T09:16:07.740Z,46.88
2019-06-27T09:17:07.901Z,46.77
2019-06-27T09:18:07.949Z,46.56
2019-06-27T09:19:08.023Z,46.67
2019-06-27T09:20:08.086Z,46.01
2019-06-27T09:21:08.140Z,45.10
2019-06-27T09:22:08.196Z,44.90
2019-06-27T09:23:08.243Z,45.39
2019-06-27T09:24:08.375Z,45.35
2019-06-27T09:25:08.377Z,45.15
2019-06-27T09:26:08.436Z,45.29
2019-06-27T09:27:08.481Z,45.46
2019-06-27T09:28:08.526Z,45.15
2019-06-27T09:29:08.654Z,44.81
2019-06-27T09:30:08.691Z,44.64
2019-06-27T09:31:08.732Z,44.35
2019-06-27T09:32:24.291Z,44.08
2019-06-27T09:33:08.826Z,44.02
2019-06-27T09:34:08.905Z,43.89
2019-06-27T09:35:08.958Z,43.28
2019-06-27T09:36:09.019Z,42.80
2019-06-27T09:37:09.093Z,42.07
2019-06-27T09:38:09.137Z,41.87
2019-06-27T09:39:09.192Z,41.51
2019-06-27T09:40:09.272Z,40.48
2019-06-27T09:41:09.339Z,40.80
2019-06-27T09:42:09.392Z,41.30
2019-06-27T09:43:09.455Z,41.44
2019-06-27T09:44:09.601Z,41.56
2019-06-27T09:45:09.644Z,41.81
2019-06-27T09:46:09.725Z,41.54
2019-06-27T09:47:09.767Z,41.34
2019-06-27T09:48:09.856Z,41.13
2019-06-27T09:49:09.928Z,41.19
2019-06-27T09:50:09.971Z,41.01
2019-06-27T09:51:10.030Z,40.68
2019-06-27T09:52:10.107Z,41.34
2019-06-27T09:53:10.175Z,41.24
2019-06-27T09:54:10.375Z,41.08
2019-06-27T09:55:10.403Z,40.73
2019-06-27T09:56:10.430Z,40.88
2019-06-27T09:57:10.531Z,40.60
2019-06-27T09:58:10.570Z,40.70
2019-06-27T09:59:10.620Z,40.39
2019-06-27T10:00:10.701Z,39.96
2019-06-27T10:01:10.992Z,39.10
2019-06-27T10:02:10.838Z,38.38
2019-06-27T10:03:10.886Z,37.87
2019-06-27T10:04:10.943Z,37.59
2019-06-27T10:05:10.991Z,37.22
2019-06-27T10:06:11.066Z,37.09
2019-06-27T10:07:11.111Z,36.51
2019-06-27T10:08:11.182Z,36.12
2019-06-27T10:09:11.238Z,36.07
2019-06-27T10:10:11.333Z,36.53
2019-06-27T10:11:11.452Z,36.71
2019-06-27T10:12:11.417Z,36.80
2019-06-27T10:13:11.547Z,37.20
2019-06-27T10:14:11.611Z,37.48
2019-06-27T10:15:11.670Z,37.71
2019-06-27T10:16:11.729Z,37.84
2019-06-27T10:17:11.782Z,37.58
2019-06-27T10:18:11.828Z,36.87
2019-06-27T10:19:11.899Z,35.30
2019-06-27T10:20:11.946Z,35.38
2019-06-27T10:21:11.991Z,35.87
2019-06-27T10:22:12.044Z,35.99
2019-06-27T10:23:12.116Z,35.87
2019-06-27T10:24:12.160Z,36.04
2019-06-27T10:25:12.384Z,36.10
2019-06-27T10:26:12.422Z,36.07
2019-06-27T10:27:12.487Z,35.48
2019-06-27T10:28:12.556Z,35.32
2019-06-27T10:29:12.631Z,35.28
2019-06-27T10:30:12.695Z,35.00
2019-06-27T10:31:12.744Z,35.03
2019-06-27T10:32:12.809Z,34.44
2019-06-27T10:33:12.899Z,34.06
2019-06-27T10:34:13.016Z,34.13
2019-06-27T10:35:13.281Z,34.20
2019-06-27T10:36:13.361Z,34.85
2019-06-27T10:37:13.417Z,34.90
2019-06-27T10:38:13.469Z,35.05
2019-06-27T10:39:13.566Z,34.63
2019-06-27T10:40:13.750Z,33.32
2019-06-27T10:41:13.820Z,32.27
2019-06-27T10:42:13.881Z,31.63
2019-06-27T10:43:14.006Z,31.19
2019-06-27T10:44:14.043Z,31.12
2019-06-27T10:45:14.113Z,31.14
2019-06-27T10:46:14.237Z,30.93
2019-06-27T10:47:14.318Z,30.16
2019-06-27T10:48:14.404Z,29.35
2019-06-27T10:49:14.441Z,28.34
2019-06-27T10:50:14.512Z,28.23
2019-06-27T10:51:14.724Z,28.65
2019-06-27T10:52:14.979Z,28.49
2019-06-27T10:53:15.018Z,28.61
2019-06-27T10:54:15.078Z,28.79
2019-06-27T10:55:15.234Z,28.84
2019-06-27T10:56:15.378Z,28.89
2019-06-27T10:57:15.915Z,29.15
2019-06-27T10:58:15.973Z,29.48
2019-06-27T10:59:16.004Z,29.60
2019-06-27T11:00:16.086Z,29.64
2019-06-27T11:01:16.156Z,29.32
2019-06-27T11:02:16.208Z,28.62
2019-06-27T11:03:16.617Z,28.39
2019-06-27T11:04:16.481Z,28.28
2019-06-27T11:06:16.570Z,27.45
2019-06-27T11:07:16.703Z,26.59
2019-06-27T11:08:16.781Z,26.41
2019-06-27T11:09:16.823Z,26.23
2019-06-27T11:10:16.894Z,26.05
2019-06-27T11:11:16.943Z,25.74
2019-06-27T11:12:17.076Z,25.71
2019-06-27T11:13:17.401Z,25.66
2019-06-27T11:14:19.200Z,25.89
2019-06-27T11:15:17.467Z,26.05
2019-06-27T11:16:17.523Z,26.16
2019-06-27T11:17:17.617Z,26.00
2019-06-27T11:18:21.172Z,26.00
2019-06-27T11:19:17.784Z,26.09
2019-06-27T11:20:17.787Z,25.29
2019-06-27T11:22:17.888Z,25.20
2019-06-27T11:23:17.944Z,25.53
2019-06-27T11:24:17.998Z,25.54
2019-06-27T11:25:18.066Z,25.47
2019-06-27T11:26:18.122Z,25.50
2019-06-27T11:27:18.168Z,24.96
2019-06-27T11:28:18.255Z,24.96
2019-06-27T11:29:18.320Z,25.03
2019-06-27T11:30:18.371Z,25.18
2019-06-27T11:31:18.471Z,25.39
2019-06-27T11:32:18.684Z,25.23
2019-06-27T11:33:31.976Z,25.31
2019-06-27T11:34:19.403Z,25.10
2019-06-27T11:35:18.932Z,25.07
2019-06-27T11:36:19.355Z,24.90
2019-06-27T11:37:19.423Z,24.84
2019-06-27T11:38:22.602Z,24.75
2019-06-27T11:39:23.244Z,24.85
2019-06-27T11:40:20.151Z,24.70
2019-06-27T11:41:22.111Z,25.26
2019-06-27T11:42:24.390Z,25.70
2019-06-27T11:43:21.126Z,25.69
2019-06-27T11:44:21.254Z,25.68
2019-06-27T11:45:21.322Z,26.15
2019-06-27T11:46:21.408Z,25.80
2019-06-27T11:47:21.590Z,25.46
2019-06-27T11:48:21.577Z,25.08
2019-06-27T11:49:21.706Z,24.41
2019-06-27T11:50:21.787Z,24.47
2019-06-27T11:51:21.861Z,24.82
2019-06-27T11:52:25.300Z,24.83
2019-06-27T11:53:22.019Z,24.74
2019-06-27T11:54:22.164Z,24.64
2019-06-27T11:55:22.330Z,24.43
2019-06-27T11:56:22.485Z,24.19
2019-06-27T11:57:22.646Z,23.73
2019-06-27T11:58:22.875Z,24.08
2019-06-27T11:59:22.973Z,23.98
2019-06-27T12:00:23.085Z,24.07
2019-06-27T12:01:23.253Z,23.79
2019-06-27T12:02:23.354Z,23.51
2019-06-27T12:03:23.397Z,22.82
2019-06-27T12:04:23.449Z,22.91
2019-06-27T12:05:23.538Z,22.70
2019-06-27T12:06:23.617Z,22.54
2019-06-27T12:07:23.684Z,22.31
2019-06-27T12:08:23.731Z,22.34
2019-06-27T12:09:23.804Z,22.54
2019-06-27T12:10:23.873Z,22.91
2019-06-27T12:11:23.976Z,22.94
2019-06-27T12:12:23.977Z,23.08
2019-06-27T12:13:24.155Z,22.92
2019-06-27T12:14:24.355Z,22.91
2019-06-27T12:15:24.419Z,22.95
2019-06-27T12:16:24.454Z,22.42
2019-06-27T12:17:24.515Z,22.43
2019-06-27T12:18:24.646Z,21.96
2019-06-27T12:19:24.606Z,21.76
2019-06-27T12:21:24.676Z,21.57
2019-06-27T12:22:24.734Z,21.51
2019-06-27T12:23:24.800Z,21.40
2019-06-27T12:24:25.064Z,21.41
2019-06-27T12:25:25.171Z,21.92
2019-06-27T12:26:25.211Z,22.10
2019-06-27T12:27:25.268Z,22.25
2019-06-27T12:28:25.338Z,22.23
2019-06-27T12:29:25.406Z,22.10
2019-06-27T12:30:25.487Z,22.14
2019-06-27T12:31:25.710Z,22.20
2019-06-27T12:32:25.761Z,22.07
2019-06-27T12:33:25.819Z,22.22
2019-06-27T12:34:25.888Z,22.04
2019-06-27T12:35:25.973Z,21.75
2019-06-27T12:36:26.029Z,21.62
2019-06-27T12:37:26.102Z,21.53
2019-06-27T12:38:26.342Z,21.32
2019-06-27T12:39:26.392Z,21.08
2019-06-27T12:40:26.466Z,21.58
2019-06-27T12:41:26.510Z,21.46
2019-06-27T12:42:32.537Z,21.13
2019-06-27T12:43:26.658Z,21.05
2019-06-27T12:44:26.723Z,20.31
2019-06-27T12:45:26.799Z,19.31
2019-06-27T12:46:26.867Z,19.35
2019-06-27T12:47:26.982Z,19.18
2019-06-27T12:48:27.041Z,18.75
2019-06-27T12:49:44.855Z,18.82
2019-06-27T12:50:27.199Z,18.98
2019-06-27T12:51:27.238Z,19.07
2019-06-27T12:52:27.281Z,19.21
2019-06-27T12:53:27.383Z,19.40
2019-06-27T12:54:27.415Z,19.49
2019-06-27T12:55:27.477Z,19.55
2019-06-27T12:56:27.530Z,19.23
2019-06-27T12:57:27.579Z,18.99
2019-06-27T12:58:27.637Z,18.77
2019-06-27T12:59:27.791Z,18.65
2019-06-27T13:00:27.846Z,18.72
2019-06-27T13:01:27.910Z,18.73
2019-06-27T13:02:27.964Z,18.50
2019-06-27T13:03:28.135Z,18.46
2019-06-27T13:04:28.543Z,18.54
2019-06-27T13:05:28.333Z,18.50
2019-06-27T13:06:28.374Z,18.50
2019-06-27T13:07:28.617Z,18.50
2019-06-27T13:08:28.525Z,18.42
2019-06-27T13:09:28.606Z,18.25